Observations for VILLAFRANCA CV MIL, Italy (LIPX)

LIPX 201950Z 33002KT 3000 BR NSC 04/02 Q1026
LIPX 201920Z 10001KT 3500 BR NSC 04/03 Q1025
LIPX 201850Z 08001KT 3500 BR NSC 06/04 Q1025
LIPX 201820Z 09003KT 3500 BR NSC 06/04 Q1025
LIPX 201750Z 07003KT 3000 BR NSC 06/04 Q1025
LIPX 201720Z 09002KT 3000 BR FEW020 08/05 Q1024 
LIPX 201650Z 09002KT 3000 BR SCT020 09/05 Q1024 
LIPX 201620Z 08002KT 3000 BR SCT020 10/05 Q1024 
LIPX 201550Z 09003KT 060V120 3000 BR SCT020 10/05 Q1024 
LIPX 201520Z VRB02KT 2500 BR SCT015 10/05 Q1024 
LIPX 201450Z 12003KT 050V160 2500 BR SCT015 10/05 Q1024 
LIPX 201420Z VRB02KT 2500 BR SCT015 10/05 Q1024 
LIPX 201350Z VRB02KT 2500 BR SCT015 10/05 Q1024 
LIPX 201320Z VRB03KT 2500 BR SCT010 10/05 Q1024 
LIPX 201250Z VRB01KT 2500 BR SCT010 09/04 Q1025 
LIPX 201220Z 23004KT 150V270 1800 BR SCT006 SCT015 09/04 Q1025  
LIPX 201150Z VRB01KT 2000 BR SCT006 SCT015 08/04 Q1025  
LIPX 201120Z VRB02KT 2000 BR SCT006 SCT015 07/04 Q1025  
LIPX 201050Z 16003KT 130V220 1500 BR SCT006 SCT015 07/04 Q1026  
LIPX 201020Z VRB02KT 1200 R04/P1500 BR SCT004 SCT010 07/04 Q1026
LIPX 200950Z VRB02KT 1000 R04/P1500 BR SCT004 SCT010 07/04 Q1026
LIPX 200920Z VRB01KT 0800 R04/1200 FG SCT003 SCT008 06/05 Q1025 
LIPX 200850Z VRB01KT 0600 R04/1100 FG SCT003 SCT007 05/05 Q1025 
LIPX 200820Z VRB01KT 0600 R04/1000 FG SCT001 SCT006 05/05 Q1025 
LIPX 200750Z VRB01KT 0500 R04/0900 FG SCT001 SCT006 05/04 Q1025 
LIPX 200720Z VRB01KT 0400 R04/0750 FG SCT001 04/04 Q1025
LIPX 200650Z 27002KT 0700 R04/0900 FG SCT002 04/04 Q1024
LIPX 200620Z VRB02KT 0600 FG SCT005 04/04 Q1024 
LIPX 200550Z VRB01KT 0800 R04/1500 FG SCT006 03/03 Q1023
LIPX 200520Z 25003KT 0900 R04/1500 FG SCT006 03/03 Q1023
LIPX 200450Z 26003KT 0900 R04/1500 FG SCT004 02/03 Q1023
LIPX 200420Z 28004KT 0600 R04/1400 FG BKN002 01/01 Q1024
LIPX 200350Z 21004KT 0200 R04/0375 FG BKN001 00/00 Q1023
LIPX 200320Z VRB01KT 0100 R04/0200 FG BKN001 00/00 Q1023
LIPX 200250Z VRB02KT 0100 R04/0250 FG BKN001 01/01 Q2019
LIPX 200150Z VRB01KT 0200 R04/0275 FG BKN001 00/00 Q1024
LIPX 200120Z 28002KT 0100 R04/0200 FG BKN001 01/00 Q1024
LIPX 200050Z 32001KT 0100 R04/0125 FG BKN001 01/01 Q1024
LIPX 200020Z 32002KT 0100 R04/0125 FG BKN001 01/01 Q1023
LIPX 192350Z VRB02KT 0100 R04/0125 FG BKN001 02/02 Q1023
LIPX 192320Z 32003KT 0100 R04/0150 FG BKN001 03/03 Q1023
LIPX 192250Z VRB02KT 0100 R04/0250 FG BKN002 02/02 Q1023
LIPX 192220Z 17002KT 0100 R04/0750 FG BKN002 03/03 Q1023
LIPX 192150Z 19002KT 1500 BCFG NSC 03/02 Q1023  
LIPX 192120Z VRB02KT 2500 BCFG NSC 02/02 Q1023  
LIPX 192050Z VRB01KT 5000 BR NSC 03/03 Q1023
LIPX 192020Z 12003KT 5000 BR NSC 04/02 Q1023
LIPX 191950Z VRB02KT 6000 NSC 04/03 Q1022   
LIPX 191920Z VRB01KT 7000 NSC 05/03 Q1022